Charlton Depot, Massachusetts
Current Conditions -  °F | °C
As of 11:50 PM on Wednesday 22 Oct 2014 (Local Time) from KORH Reporting Station
Moderate Rain Moderate Rain  
Wind Chill: 38°   Ceiling: 600
Heat Index: 45°   Visibility: 3mi
Dew Point: 45°   Wind: 15mph
Humidity: 100%   Direction: 30°NNE
Pressure: 29.82"   Gusts: 33mph
Location:  42.17°N, 71.98°W
Report Text: KORH 230350Z AUTO 03013G29KT 3SM RA BR BKN006 OVC011 07/07 A2982 RMK AO2 PK WND 04032/0302 SFC VIS 4 CIG 004V008 P0015
Loading
Personal Weather Stations






























Interactive Weather Map
Tropical Storm Tracking
New forecast layout! Learn more

10-Day Weather Forecast

Advertisements
Track Severe Weather on mobile